PWSweather.com
Personal Weather Stations
Station Observations
GHWX1
Golden Heights, Sturgeon County, AB T0A1N5

Golden HeightsSturgeon County, AB T0A1N5

Lat: 53.919, Lon: -113.37

Elevation: 2159

Station Type:

http://www.ghwx.ca

Latest ConditionsUpdated 4:01:01 AM MST Sunday, Dec 15, 2019
Currently Today's Max Today's Min Today's Average
Temperature 13.5°F-10.3°C 15.8°F-9.0°C 12.8°F-10.7°C 14.8°F-9.6°C
Dew Point 11.3°F-11.5°C 14.1°F-9.9°C 11.3°F-11.5°C 12.8°F-10.7°C
Winds 4.0 mph NW6.4 kmh NW 9.0 mph -14.5 kmh - - 2.9 mph 4.7 kmh
Wind Gusts -- -- - -
Humidity 91% 96% 91% 92%
Pressure 29.80 in1009.1 mb 29.80 in1009.1 mb 29.76 in1007.8 mb -
Hour Temp Dew Point Humidity Winds Wind Gusts Pressure Precip Precip Rate Daily Precip Total
04:01 AM 13.5°F-10.3°C 11.3°F-11.5°C 91% 4.0 mph NW6.4 kmh NW -- 29.80 in1009.1 mb 0.00 in0.0 mm 0.00 in0.0 mm 0.00 in0.0 mm
04:00 AM 13.5°F-10.3°C 11.3°F-11.5°C 91% 3.0 mph NNW4.8 kmh NNW -- 29.80 in1009.1 mb 0.00 in0.0 mm 0.00 in0.0 mm 0.00 in0.0 mm
03:59 AM 13.5°F-10.3°C 11.3°F-11.5°C 91% 6.0 mph WNW9.7 kmh WNW -- 29.79 in1008.8 mb 0.00 in0.0 mm 0.00 in0.0 mm 0.00 in0.0 mm
03:58 AM 13.5°F-10.3°C 11.3°F-11.5°C 91% 4.0 mph NW6.4 kmh NW -- 29.79 in1008.8 mb 0.00 in0.0 mm 0.00 in0.0 mm 0.00 in0.0 mm
03:57 AM 13.5°F-10.3°C 11.3°F-11.5°C 91% 3.0 mph NNE4.8 kmh NNE -- 29.79 in1008.8 mb 0.00 in0.0 mm 0.00 in0.0 mm 0.00 in0.0 mm
03:56 AM 13.5°F-10.3°C 11.3°F-11.5°C 91% 3.0 mph NNW4.8 kmh NNW -- 29.79 in1008.8 mb 0.00 in0.0 mm 0.00 in0.0 mm 0.00 in0.0 mm
03:55 AM 13.5°F-10.3°C 11.3°F-11.5°C 91% 6.0 mph NW9.7 kmh NW -- 29.79 in1008.8 mb 0.00 in0.0 mm 0.00 in0.0 mm 0.00 in0.0 mm
03:54 AM 13.5°F-10.3°C 11.3°F-11.5°C 91% 7.0 mph WNW11.3 kmh WNW -- 29.79 in1008.8 mb 0.00 in0.0 mm 0.00 in0.0 mm 0.00 in0.0 mm
03:53 AM 13.6°F-10.2°C 11.5°F-11.4°C 91% 2.0 mph WNW3.2 kmh WNW -- 29.79 in1008.8 mb 0.00 in0.0 mm 0.00 in0.0 mm 0.00 in0.0 mm
03:52 AM 13.6°F-10.2°C 11.5°F-11.4°C 91% 4.0 mph NW6.4 kmh NW -- 29.80 in1009.1 mb 0.00 in0.0 mm 0.00 in0.0 mm 0.00 in0.0 mm
03:51 AM 13.6°F-10.2°C 11.5°F-11.4°C 91% 5.0 mph NW8.0 kmh NW -- 29.79 in1008.8 mb 0.00 in0.0 mm 0.00 in0.0 mm 0.00 in0.0 mm
03:50 AM 13.6°F-10.2°C 11.5°F-11.4°C 91% 4.0 mph NNW6.4 kmh NNW -- 29.79 in1008.8 mb 0.00 in0.0 mm 0.00 in0.0 mm 0.00 in0.0 mm
03:49 AM 13.6°F-10.2°C 11.5°F-11.4°C 91% 3.0 mph NNW4.8 kmh NNW -- 29.79 in1008.8 mb 0.00 in0.0 mm 0.00 in0.0 mm 0.00 in0.0 mm
03:48 AM 13.6°F-10.2°C 11.5°F-11.4°C 91% 2.0 mph NNW3.2 kmh NNW -- 29.79 in1008.8 mb 0.00 in0.0 mm 0.00 in0.0 mm 0.00 in0.0 mm
03:47 AM 13.6°F-10.2°C 11.5°F-11.4°C 91% 4.0 mph NW6.4 kmh NW -- 29.80 in1009.1 mb 0.00 in0.0 mm 0.00 in0.0 mm 0.00 in0.0 mm
03:46 AM 13.6°F-10.2°C 11.5°F-11.4°C 91% 5.0 mph NW8.0 kmh NW -- 29.79 in1008.8 mb 0.00 in0.0 mm 0.00 in0.0 mm 0.00 in0.0 mm
03:45 AM 13.7°F-10.2°C 11.5°F-11.4°C 91% 6.0 mph NW9.7 kmh NW -- 29.79 in1008.8 mb 0.00 in0.0 mm 0.00 in0.0 mm 0.00 in0.0 mm
03:44 AM 13.7°F-10.2°C 11.5°F-11.4°C 91% 4.0 mph NW6.4 kmh NW -- 29.79 in1008.8 mb 0.00 in0.0 mm 0.00 in0.0 mm 0.00 in0.0 mm
03:43 AM 13.7°F-10.2°C 11.5°F-11.4°C 91% 2.0 mph NNW3.2 kmh NNW -- 29.79 in1008.8 mb 0.00 in0.0 mm 0.00 in0.0 mm 0.00 in0.0 mm
03:42 AM 13.7°F-10.2°C 11.5°F-11.4°C 91% 2.0 mph 3.2 kmh -- 29.79 in1008.8 mb 0.00 in0.0 mm 0.00 in0.0 mm 0.00 in0.0 mm
03:41 AM 13.7°F-10.2°C 11.5°F-11.4°C 91% 4.0 mph NW6.4 kmh NW -- 29.79 in1008.8 mb 0.00 in0.0 mm 0.00 in0.0 mm 0.00 in0.0 mm
03:40 AM 13.7°F-10.2°C 11.5°F-11.4°C 91% 2.0 mph NW3.2 kmh NW -- 29.79 in1008.8 mb 0.00 in0.0 mm 0.00 in0.0 mm 0.00 in0.0 mm
03:39 AM 13.7°F-10.2°C 11.5°F-11.4°C 91% 3.0 mph WNW4.8 kmh WNW -- 29.79 in1008.8 mb 0.00 in0.0 mm 0.00 in0.0 mm 0.00 in0.0 mm
03:38 AM 13.7°F-10.2°C 11.5°F-11.4°C 91% 3.0 mph NNW4.8 kmh NNW -- 29.79 in1008.8 mb 0.00 in0.0 mm 0.00 in0.0 mm 0.00 in0.0 mm
03:37 AM 13.7°F-10.2°C 11.5°F-11.4°C 91% 2.0 mph NW3.2 kmh NW -- 29.79 in1008.8 mb 0.00 in0.0 mm 0.00 in0.0 mm 0.00 in0.0 mm
03:36 AM 13.7°F-10.2°C 11.5°F-11.4°C 91% 4.0 mph WNW6.4 kmh WNW -- 29.79 in1008.8 mb 0.00 in0.0 mm 0.00 in0.0 mm 0.00 in0.0 mm
03:35 AM 13.7°F-10.2°C 11.5°F-11.4°C 91% 2.0 mph NW3.2 kmh NW -- 29.79 in1008.8 mb 0.00 in0.0 mm 0.00 in0.0 mm 0.00 in0.0 mm
03:34 AM 13.7°F-10.2°C 11.5°F-11.4°C 91% 2.0 mph NNW3.2 kmh NNW -- 29.79 in1008.8 mb 0.00 in0.0 mm 0.00 in0.0 mm 0.00 in0.0 mm
03:33 AM 13.7°F-10.2°C 11.5°F-11.4°C 91% 4.0 mph NW6.4 kmh NW -- 29.79 in1008.8 mb 0.00 in0.0 mm 0.00 in0.0 mm 0.00 in0.0 mm
03:32 AM 13.9°F-10.1°C 11.6°F-11.3°C 91% 3.0 mph NNW4.8 kmh NNW -- 29.79 in1008.8 mb 0.00 in0.0 mm 0.00 in0.0 mm 0.00 in0.0 mm
03:31 AM 13.9°F-10.1°C 11.6°F-11.3°C 91% 3.0 mph NW4.8 kmh NW -- 29.78 in1008.5 mb 0.00 in0.0 mm 0.00 in0.0 mm 0.00 in0.0 mm
03:30 AM 13.9°F-10.1°C 11.6°F-11.3°C 91% 4.0 mph NW6.4 kmh NW -- 29.78 in1008.5 mb 0.00 in0.0 mm 0.00 in0.0 mm 0.00 in0.0 mm
03:29 AM 13.9°F-10.1°C 11.6°F-11.3°C 91% 3.0 mph W4.8 kmh W -- 29.78 in1008.5 mb 0.00 in0.0 mm 0.00 in0.0 mm 0.00 in0.0 mm
03:28 AM 13.9°F-10.1°C 11.6°F-11.3°C 91% 3.0 mph NW4.8 kmh NW -- 29.79 in1008.8 mb 0.00 in0.0 mm 0.00 in0.0 mm 0.00 in0.0 mm
03:27 AM 13.9°F-10.1°C 11.6°F-11.3°C 91% 2.0 mph NW3.2 kmh NW -- 29.79 in1008.8 mb 0.00 in0.0 mm 0.00 in0.0 mm 0.00 in0.0 mm
03:26 AM 14.1°F-9.9°C 12.0°F-11.1°C 91% 2.0 mph WNW3.2 kmh WNW -- 29.79 in1008.8 mb 0.00 in0.0 mm 0.00 in0.0 mm 0.00 in0.0 mm
03:25 AM 14.1°F-9.9°C 12.0°F-11.1°C 91% 1.0 mph W1.6 kmh W -- 29.79 in1008.8 mb 0.00 in0.0 mm 0.00 in0.0 mm 0.00 in0.0 mm
03:24 AM 14.1°F-9.9°C 12.0°F-11.1°C 91% 3.0 mph NW4.8 kmh NW -- 29.79 in1008.8 mb 0.00 in0.0 mm 0.00 in0.0 mm 0.00 in0.0 mm
03:23 AM 14.1°F-9.9°C 12.0°F-11.1°C 91% 1.0 mph NNE1.6 kmh NNE -- 29.79 in1008.8 mb 0.00 in0.0 mm 0.00 in0.0 mm 0.00 in0.0 mm
03:21 AM 14.1°F-9.9°C 12.0°F-11.1°C 91% 4.0 mph NW6.4 kmh NW -- 29.79 in1008.8 mb 0.00 in0.0 mm 0.00 in0.0 mm 0.00 in0.0 mm
03:20 AM 14.1°F-9.9°C 12.0°F-11.1°C 91% 2.0 mph NNW3.2 kmh NNW -- 29.79 in1008.8 mb 0.00 in0.0 mm 0.00 in0.0 mm 0.00 in0.0 mm
03:18 AM 14.1°F-9.9°C 12.0°F-11.1°C 91% 3.0 mph WNW4.8 kmh WNW -- 29.79 in1008.8 mb 0.00 in0.0 mm 0.00 in0.0 mm 0.00 in0.0 mm
03:17 AM 14.1°F-9.9°C 12.0°F-11.1°C 91% 4.0 mph NW6.4 kmh NW -- 29.79 in1008.8 mb 0.00 in0.0 mm 0.00 in0.0 mm 0.00 in0.0 mm
03:16 AM 14.3°F-9.8°C 12.2°F-11.0°C 91% 4.0 mph WNW6.4 kmh WNW -- 29.79 in1008.8 mb 0.00 in0.0 mm 0.00 in0.0 mm 0.00 in0.0 mm
03:15 AM 14.3°F-9.8°C 12.2°F-11.0°C 91% 2.0 mph WNW3.2 kmh WNW -- 29.79 in1008.8 mb 0.00 in0.0 mm 0.00 in0.0 mm 0.00 in0.0 mm
03:14 AM 14.3°F-9.8°C 12.2°F-11.0°C 91% 5.0 mph NW8.0 kmh NW -- 29.79 in1008.8 mb 0.00 in0.0 mm 0.00 in0.0 mm 0.00 in0.0 mm
03:13 AM 14.3°F-9.8°C 12.2°F-11.0°C 91% 3.0 mph WNW4.8 kmh WNW -- 29.79 in1008.8 mb 0.00 in0.0 mm 0.00 in0.0 mm 0.00 in0.0 mm
03:12 AM 14.3°F-9.8°C 12.2°F-11.0°C 91% 4.0 mph WNW6.4 kmh WNW -- 29.79 in1008.8 mb 0.00 in0.0 mm 0.00 in0.0 mm 0.00 in0.0 mm
03:11 AM 14.3°F-9.8°C 12.2°F-11.0°C 91% 5.0 mph NW8.0 kmh NW -- 29.79 in1008.8 mb 0.00 in0.0 mm 0.00 in0.0 mm 0.00 in0.0 mm
03:10 AM 14.3°F-9.8°C 12.2°F-11.0°C 91% 6.0 mph 9.7 kmh -- 29.79 in1008.8 mb 0.00 in0.0 mm 0.00 in0.0 mm 0.00 in0.0 mm
03:09 AM 14.5°F-9.7°C 12.4°F-10.9°C 91% 3.0 mph NW4.8 kmh NW -- 29.79 in1008.8 mb 0.00 in0.0 mm 0.00 in0.0 mm 0.00 in0.0 mm
03:08 AM 14.5°F-9.7°C 12.4°F-10.9°C 91% 5.0 mph W8.0 kmh W -- 29.79 in1008.8 mb 0.00 in0.0 mm 0.00 in0.0 mm 0.00 in0.0 mm
03:07 AM 14.5°F-9.7°C 12.4°F-10.9°C 91% 6.0 mph NW9.7 kmh NW -- 29.79 in1008.8 mb 0.00 in0.0 mm 0.00 in0.0 mm 0.00 in0.0 mm
03:06 AM 14.5°F-9.7°C 12.4°F-10.9°C 91% 3.0 mph NW4.8 kmh NW -- 29.79 in1008.8 mb 0.00 in0.0 mm 0.00 in0.0 mm 0.00 in0.0 mm
03:05 AM 14.7°F-9.6°C 12.5°F-10.8°C 91% 5.0 mph WNW8.0 kmh WNW -- 29.79 in1008.8 mb 0.00 in0.0 mm 0.00 in0.0 mm 0.00 in0.0 mm
03:04 AM 14.7°F-9.6°C 12.5°F-10.8°C 91% 2.0 mph WNW3.2 kmh WNW -- 29.79 in1008.8 mb 0.00 in0.0 mm 0.00 in0.0 mm 0.00 in0.0 mm
03:02 AM 14.7°F-9.6°C 12.5°F-10.8°C 91% 3.0 mph W4.8 kmh W -- 29.79 in1008.8 mb 0.00 in0.0 mm 0.00 in0.0 mm 0.00 in0.0 mm
03:01 AM 14.7°F-9.6°C 12.5°F-10.8°C 91% 2.0 mph NW3.2 kmh NW -- 29.79 in1008.8 mb 0.00 in0.0 mm 0.00 in0.0 mm 0.00 in0.0 mm
03:00 AM 14.9°F-9.5°C 12.7°F-10.7°C 91% 3.0 mph NW4.8 kmh NW -- 29.79 in1008.8 mb 0.00 in0.0 mm 0.00 in0.0 mm 0.00 in0.0 mm
02:59 AM 14.9°F-9.5°C 12.7°F-10.7°C 91% 6.0 mph NW9.7 kmh NW -- 29.79 in1008.8 mb 0.00 in0.0 mm 0.00 in0.0 mm 0.00 in0.0 mm
02:58 AM 14.9°F-9.5°C 12.7°F-10.7°C 91% 7.0 mph W11.3 kmh W -- 29.79 in1008.8 mb 0.00 in0.0 mm 0.00 in0.0 mm 0.00 in0.0 mm
02:57 AM 14.9°F-9.5°C 12.7°F-10.7°C 91% 3.0 mph NNW4.8 kmh NNW -- 29.79 in1008.8 mb 0.00 in0.0 mm 0.00 in0.0 mm 0.00 in0.0 mm
02:56 AM 14.9°F-9.5°C 12.7°F-10.7°C 91% 4.0 mph NW6.4 kmh NW -- 29.79 in1008.8 mb 0.00 in0.0 mm 0.00 in0.0 mm 0.00 in0.0 mm
02:55 AM 14.9°F-9.5°C 12.7°F-10.7°C 91% 5.0 mph NW8.0 kmh NW -- 29.80 in1009.1 mb 0.00 in0.0 mm 0.00 in0.0 mm 0.00 in0.0 mm
02:53 AM 14.9°F-9.5°C 12.7°F-10.7°C 91% 4.0 mph NW6.4 kmh NW -- 29.79 in1008.8 mb 0.00 in0.0 mm 0.00 in0.0 mm 0.00 in0.0 mm
02:51 AM 14.9°F-9.5°C 12.7°F-10.7°C 91% 5.0 mph WSW8.0 kmh WSW -- 29.79 in1008.8 mb 0.00 in0.0 mm 0.00 in0.0 mm 0.00 in0.0 mm
02:50 AM 14.9°F-9.5°C 12.7°F-10.7°C 91% 2.0 mph W3.2 kmh W -- 29.79 in1008.8 mb 0.00 in0.0 mm 0.00 in0.0 mm 0.00 in0.0 mm
02:48 AM 15.0°F-9.4°C 12.9°F-10.6°C 91% 2.0 mph W3.2 kmh W -- 29.79 in1008.8 mb 0.00 in0.0 mm 0.00 in0.0 mm 0.00 in0.0 mm
02:47 AM 15.0°F-9.4°C 12.9°F-10.6°C 91% 2.0 mph WSW3.2 kmh WSW -- 29.79 in1008.8 mb 0.00 in0.0 mm 0.00 in0.0 mm 0.00 in0.0 mm
02:46 AM 15.0°F-9.4°C 12.9°F-10.6°C 91% 2.0 mph W3.2 kmh W -- 29.79 in1008.8 mb 0.00 in0.0 mm 0.00 in0.0 mm 0.00 in0.0 mm
02:45 AM 15.0°F-9.4°C 12.9°F-10.6°C 91% 2.0 mph WNW3.2 kmh WNW -- 29.79 in1008.8 mb 0.00 in0.0 mm 0.00 in0.0 mm 0.00 in0.0 mm
02:44 AM 15.0°F-9.4°C 12.9°F-10.6°C 91% 2.0 mph W3.2 kmh W -- 29.79 in1008.8 mb 0.00 in0.0 mm 0.00 in0.0 mm 0.00 in0.0 mm
02:42 AM 15.0°F-9.4°C 12.9°F-10.6°C 91% 1.0 mph WNW1.6 kmh WNW -- 29.79 in1008.8 mb 0.00 in0.0 mm 0.00 in0.0 mm 0.00 in0.0 mm
02:41 AM 15.0°F-9.4°C 12.9°F-10.6°C 91% 1.0 mph W1.6 kmh W -- 29.79 in1008.8 mb 0.00 in0.0 mm 0.00 in0.0 mm 0.00 in0.0 mm
02:38 AM 15.0°F-9.4°C 12.9°F-10.6°C 91% 2.0 mph WNW3.2 kmh WNW -- 29.79 in1008.8 mb 0.00 in0.0 mm 0.00 in0.0 mm 0.00 in0.0 mm
02:37 AM 15.0°F-9.4°C 12.9°F-10.6°C 91% 3.0 mph WNW4.8 kmh WNW -- 29.79 in1008.8 mb 0.00 in0.0 mm 0.00 in0.0 mm 0.00 in0.0 mm
02:36 AM 15.0°F-9.4°C 12.9°F-10.6°C 91% 4.0 mph WNW6.4 kmh WNW -- 29.79 in1008.8 mb 0.00 in0.0 mm 0.00 in0.0 mm 0.00 in0.0 mm
02:34 AM 15.0°F-9.4°C 12.9°F-10.6°C 91% 2.0 mph WNW3.2 kmh WNW -- 29.79 in1008.8 mb 0.00 in0.0 mm 0.00 in0.0 mm 0.00 in0.0 mm
02:32 AM 15.0°F-9.4°C 12.9°F-10.6°C 91% 3.0 mph NW4.8 kmh NW -- 29.79 in1008.8 mb 0.00 in0.0 mm 0.00 in0.0 mm 0.00 in0.0 mm
02:31 AM 15.0°F-9.4°C 12.9°F-10.6°C 91% 2.0 mph WNW3.2 kmh WNW -- 29.79 in1008.8 mb 0.00 in0.0 mm 0.00 in0.0 mm 0.00 in0.0 mm
02:30 AM 15.0°F-9.4°C 12.9°F-10.6°C 91% 3.0 mph NW4.8 kmh NW -- 29.79 in1008.8 mb 0.00 in0.0 mm 0.00 in0.0 mm 0.00 in0.0 mm
02:29 AM 15.0°F-9.4°C 12.9°F-10.6°C 91% 3.0 mph W4.8 kmh W -- 29.79 in1008.8 mb 0.00 in0.0 mm 0.00 in0.0 mm 0.00 in0.0 mm
02:28 AM 15.0°F-9.4°C 12.9°F-10.6°C 91% 1.0 mph NNW1.6 kmh NNW -- 29.79 in1008.8 mb 0.00 in0.0 mm 0.00 in0.0 mm 0.00 in0.0 mm
02:27 AM 15.0°F-9.4°C 12.9°F-10.6°C 91% 2.0 mph W3.2 kmh W -- 29.78 in1008.5 mb 0.00 in0.0 mm 0.00 in0.0 mm 0.00 in0.0 mm
02:26 AM 15.0°F-9.4°C 12.9°F-10.6°C 91% 3.0 mph W4.8 kmh W -- 29.78 in1008.5 mb 0.00 in0.0 mm 0.00 in0.0 mm 0.00 in0.0 mm
02:25 AM 15.0°F-9.4°C 12.9°F-10.6°C 91% 1.0 mph WNW1.6 kmh WNW -- 29.78 in1008.5 mb 0.00 in0.0 mm 0.00 in0.0 mm 0.00 in0.0 mm
02:24 AM 15.0°F-9.4°C 12.9°F-10.6°C 91% 3.0 mph W4.8 kmh W -- 29.78 in1008.5 mb 0.00 in0.0 mm 0.00 in0.0 mm 0.00 in0.0 mm
02:23 AM 15.0°F-9.4°C 12.9°F-10.6°C 91% 2.0 mph W3.2 kmh W -- 29.78 in1008.5 mb 0.00 in0.0 mm 0.00 in0.0 mm 0.00 in0.0 mm
02:22 AM 15.0°F-9.4°C 12.9°F-10.6°C 91% 2.0 mph WNW3.2 kmh WNW -- 29.78 in1008.5 mb 0.00 in0.0 mm 0.00 in0.0 mm 0.00 in0.0 mm
02:21 AM 15.0°F-9.4°C 12.9°F-10.6°C 91% 1.0 mph W1.6 kmh W -- 29.78 in1008.5 mb 0.00 in0.0 mm 0.00 in0.0 mm 0.00 in0.0 mm
02:20 AM 15.0°F-9.4°C 12.9°F-10.6°C 91% 2.0 mph W3.2 kmh W -- 29.78 in1008.5 mb 0.00 in0.0 mm 0.00 in0.0 mm 0.00 in0.0 mm
02:19 AM 15.0°F-9.4°C 12.9°F-10.6°C 91% 3.0 mph WNW4.8 kmh WNW -- 29.78 in1008.5 mb 0.00 in0.0 mm 0.00 in0.0 mm 0.00 in0.0 mm
02:18 AM 15.0°F-9.4°C 12.9°F-10.6°C 91% 2.0 mph WNW3.2 kmh WNW -- 29.78 in1008.5 mb 0.00 in0.0 mm 0.00 in0.0 mm 0.00 in0.0 mm
02:17 AM 15.0°F-9.4°C 12.9°F-10.6°C 91% 4.0 mph WNW6.4 kmh WNW -- 29.78 in1008.5 mb 0.00 in0.0 mm 0.00 in0.0 mm 0.00 in0.0 mm
02:16 AM 15.0°F-9.4°C 12.9°F-10.6°C 91% 5.0 mph W8.0 kmh W -- 29.78 in1008.5 mb 0.00 in0.0 mm 0.00 in0.0 mm 0.00 in0.0 mm
02:15 AM 15.0°F-9.4°C 12.9°F-10.6°C 91% 4.0 mph W6.4 kmh W -- 29.78 in1008.5 mb 0.00 in0.0 mm 0.00 in0.0 mm 0.00 in0.0 mm
02:12 AM 15.0°F-9.4°C 12.9°F-10.6°C 91% 2.0 mph W3.2 kmh W -- 29.78 in1008.5 mb 0.00 in0.0 mm 0.00 in0.0 mm 0.00 in0.0 mm
02:11 AM 15.0°F-9.4°C 12.9°F-10.6°C 91% 2.0 mph WNW3.2 kmh WNW -- 29.78 in1008.5 mb 0.00 in0.0 mm 0.00 in0.0 mm 0.00 in0.0 mm
02:09 AM 15.0°F-9.4°C 12.9°F-10.6°C 91% 2.0 mph W3.2 kmh W -- 29.78 in1008.5 mb 0.00 in0.0 mm 0.00 in0.0 mm 0.00 in0.0 mm
02:08 AM 15.0°F-9.4°C 12.9°F-10.6°C 91% 2.0 mph SW3.2 kmh SW -- 29.78 in1008.5 mb 0.00 in0.0 mm 0.00 in0.0 mm 0.00 in0.0 mm
02:07 AM 15.0°F-9.4°C 12.9°F-10.6°C 91% 3.0 mph NW4.8 kmh NW -- 29.78 in1008.5 mb 0.00 in0.0 mm 0.00 in0.0 mm 0.00 in0.0 mm
02:06 AM 15.0°F-9.4°C 12.9°F-10.6°C 91% 1.0 mph W1.6 kmh W -- 29.78 in1008.5 mb 0.00 in0.0 mm 0.00 in0.0 mm 0.00 in0.0 mm
02:05 AM 15.0°F-9.4°C 12.9°F-10.6°C 91% 1.0 mph NW1.6 kmh NW -- 29.78 in1008.5 mb 0.00 in0.0 mm 0.00 in0.0 mm 0.00 in0.0 mm
02:04 AM 15.0°F-9.4°C 12.9°F-10.6°C 91% 1.0 mph SW1.6 kmh SW -- 29.78 in1008.5 mb 0.00 in0.0 mm 0.00 in0.0 mm 0.00 in0.0 mm
02:03 AM 15.0°F-9.4°C 12.9°F-10.6°C 91% 5.0 mph W8.0 kmh W -- 29.78 in1008.5 mb 0.00 in0.0 mm 0.00 in0.0 mm 0.00 in0.0 mm
02:02 AM 15.0°F-9.4°C 12.9°F-10.6°C 91% 1.0 mph WNW1.6 kmh WNW -- 29.78 in1008.5 mb 0.00 in0.0 mm 0.00 in0.0 mm 0.00 in0.0 mm
02:01 AM 15.0°F-9.4°C 12.9°F-10.6°C 91% Calm Calm -- 29.79 in1008.8 mb 0.00 in0.0 mm 0.00 in0.0 mm 0.00 in0.0 mm
02:00 AM 15.0°F-9.4°C 12.9°F-10.6°C 91% Calm Calm -- 29.78 in1008.5 mb 0.00 in0.0 mm 0.00 in0.0 mm 0.00 in0.0 mm
01:59 AM 15.0°F-9.4°C 12.9°F-10.6°C 91% 1.0 mph W1.6 kmh W -- 29.79 in1008.8 mb 0.00 in0.0 mm 0.00 in0.0 mm 0.00 in0.0 mm
01:57 AM 15.0°F-9.4°C 12.9°F-10.6°C 91% 2.0 mph W3.2 kmh W -- 29.79 in1008.8 mb 0.00 in0.0 mm 0.00 in0.0 mm 0.00 in0.0 mm
01:56 AM 15.0°F-9.4°C 12.9°F-10.6°C 91% 2.0 mph W3.2 kmh W -- 29.78 in1008.5 mb 0.00 in0.0 mm 0.00 in0.0 mm 0.00 in0.0 mm
01:55 AM 15.0°F-9.4°C 12.9°F-10.6°C 91% 1.0 mph W1.6 kmh W -- 29.78 in1008.5 mb 0.00 in0.0 mm 0.00 in0.0 mm 0.00 in0.0 mm
01:54 AM 15.0°F-9.4°C 12.9°F-10.6°C 91% 3.0 mph NW4.8 kmh NW -- 29.78 in1008.5 mb 0.00 in0.0 mm 0.00 in0.0 mm 0.00 in0.0 mm
01:53 AM 15.0°F-9.4°C 12.9°F-10.6°C 91% 2.0 mph WNW3.2 kmh WNW -- 29.78 in1008.5 mb 0.00 in0.0 mm 0.00 in0.0 mm 0.00 in0.0 mm
01:52 AM 15.0°F-9.4°C 12.9°F-10.6°C 91% 3.0 mph W4.8 kmh W -- 29.78 in1008.5 mb 0.00 in0.0 mm 0.00 in0.0 mm 0.00 in0.0 mm
01:51 AM 15.0°F-9.4°C 12.9°F-10.6°C 91% 2.0 mph W3.2 kmh W -- 29.78 in1008.5 mb 0.00 in0.0 mm 0.00 in0.0 mm 0.00 in0.0 mm
01:49 AM 15.0°F-9.4°C 12.9°F-10.6°C 91% 1.0 mph W1.6 kmh W -- 29.78 in1008.5 mb 0.00 in0.0 mm 0.00 in0.0 mm 0.00 in0.0 mm
01:48 AM 15.0°F-9.4°C 12.9°F-10.6°C 91% 1.0 mph WNW1.6 kmh WNW -- 29.78 in1008.5 mb 0.00 in0.0 mm 0.00 in0.0 mm 0.00 in0.0 mm
01:47 AM 15.2°F-9.3°C 13.1°F-10.5°C 91% 1.0 mph WNW1.6 kmh WNW -- 29.78 in1008.5 mb 0.00 in0.0 mm 0.00 in0.0 mm 0.00 in0.0 mm
01:46 AM 15.2°F-9.3°C 13.1°F-10.5°C 91% 2.0 mph WNW3.2 kmh WNW -- 29.78 in1008.5 mb 0.00 in0.0 mm 0.00 in0.0 mm 0.00 in0.0 mm
01:45 AM 15.2°F-9.3°C 13.1°F-10.5°C 91% 2.0 mph W3.2 kmh W -- 29.78 in1008.5 mb 0.00 in0.0 mm 0.00 in0.0 mm 0.00 in0.0 mm
01:44 AM 15.2°F-9.3°C 13.1°F-10.5°C 91% 3.0 mph WNW4.8 kmh WNW -- 29.78 in1008.5 mb 0.00 in0.0 mm 0.00 in0.0 mm 0.00 in0.0 mm
01:43 AM 15.2°F-9.3°C 13.1°F-10.5°C 91% 1.0 mph W1.6 kmh W -- 29.78 in1008.5 mb 0.00 in0.0 mm 0.00 in0.0 mm 0.00 in0.0 mm
01:42 AM 15.2°F-9.3°C 13.1°F-10.5°C 91% 2.0 mph WNW3.2 kmh WNW -- 29.78 in1008.5 mb 0.00 in0.0 mm 0.00 in0.0 mm 0.00 in0.0 mm
01:41 AM 15.2°F-9.3°C 13.1°F-10.5°C 91% 2.0 mph W3.2 kmh W -- 29.78 in1008.5 mb 0.00 in0.0 mm 0.00 in0.0 mm 0.00 in0.0 mm
01:39 AM 15.2°F-9.3°C 13.1°F-10.5°C 91% 1.0 mph W1.6 kmh W -- 29.78 in1008.5 mb 0.00 in0.0 mm 0.00 in0.0 mm 0.00 in0.0 mm
01:38 AM 15.2°F-9.3°C 13.1°F-10.5°C 91% 1.0 mph WNW1.6 kmh WNW -- 29.78 in1008.5 mb 0.00 in0.0 mm 0.00 in0.0 mm 0.00 in0.0 mm
01:37 AM 15.2°F-9.3°C 13.1°F-10.5°C 91% 3.0 mph NW4.8 kmh NW -- 29.78 in1008.5 mb 0.00 in0.0 mm 0.00 in0.0 mm 0.00 in0.0 mm
01:36 AM 15.2°F-9.3°C 13.1°F-10.5°C 91% 2.0 mph NW3.2 kmh NW -- 29.78 in1008.5 mb 0.00 in0.0 mm 0.00 in0.0 mm 0.00 in0.0 mm
01:35 AM 15.2°F-9.3°C 13.1°F-10.5°C 91% 2.0 mph NNW3.2 kmh NNW -- 29.78 in1008.5 mb 0.00 in0.0 mm 0.00 in0.0 mm 0.00 in0.0 mm
01:34 AM 15.2°F-9.3°C 13.1°F-10.5°C 91% 4.0 mph W6.4 kmh W -- 29.78 in1008.5 mb 0.00 in0.0 mm 0.00 in0.0 mm 0.00 in0.0 mm
01:33 AM 15.2°F-9.3°C 13.1°F-10.5°C 91% 2.0 mph WNW3.2 kmh WNW -- 29.78 in1008.5 mb 0.00 in0.0 mm 0.00 in0.0 mm 0.00 in0.0 mm
01:32 AM 15.3°F-9.3°C 13.3°F-10.4°C 92% 3.0 mph W4.8 kmh W -- 29.78 in1008.5 mb 0.00 in0.0 mm 0.00 in0.0 mm 0.00 in0.0 mm
01:31 AM 15.2°F-9.3°C 13.1°F-10.5°C 91% 2.0 mph W3.2 kmh W -- 29.78 in1008.5 mb 0.00 in0.0 mm 0.00 in0.0 mm 0.00 in0.0 mm
01:29 AM 15.2°F-9.3°C 13.1°F-10.5°C 91% 3.0 mph WNW4.8 kmh WNW -- 29.78 in1008.5 mb 0.00 in0.0 mm 0.00 in0.0 mm 0.00 in0.0 mm
01:28 AM 15.2°F-9.3°C 13.1°F-10.5°C 91% 1.0 mph WNW1.6 kmh WNW -- 29.77 in1008.1 mb 0.00 in0.0 mm 0.00 in0.0 mm 0.00 in0.0 mm
01:27 AM 15.2°F-9.3°C 13.1°F-10.5°C 91% 1.0 mph W1.6 kmh W -- 29.78 in1008.5 mb 0.00 in0.0 mm 0.00 in0.0 mm 0.00 in0.0 mm
01:26 AM 15.2°F-9.3°C 13.1°F-10.5°C 91% 3.0 mph W4.8 kmh W -- 29.78 in1008.5 mb 0.00 in0.0 mm 0.00 in0.0 mm 0.00 in0.0 mm
01:24 AM 15.2°F-9.3°C 13.1°F-10.5°C 91% 2.0 mph W3.2 kmh W -- 29.77 in1008.1 mb 0.00 in0.0 mm 0.00 in0.0 mm 0.00 in0.0 mm
01:23 AM 15.3°F-9.3°C 13.1°F-10.5°C 91% 2.0 mph W3.2 kmh W -- 29.77 in1008.1 mb 0.00 in0.0 mm 0.00 in0.0 mm 0.00 in0.0 mm
01:22 AM 15.3°F-9.3°C 13.1°F-10.5°C 91% 2.0 mph WNW3.2 kmh WNW -- 29.77 in1008.1 mb 0.00 in0.0 mm 0.00 in0.0 mm 0.00 in0.0 mm
01:21 AM 15.3°F-9.3°C 13.1°F-10.5°C 91% 2.0 mph W3.2 kmh W -- 29.77 in1008.1 mb 0.00 in0.0 mm 0.00 in0.0 mm 0.00 in0.0 mm
01:20 AM 15.3°F-9.3°C 13.1°F-10.5°C 91% 2.0 mph WNW3.2 kmh WNW -- 29.77 in1008.1 mb 0.00 in0.0 mm 0.00 in0.0 mm 0.00 in0.0 mm
01:19 AM 15.3°F-9.3°C 13.1°F-10.5°C 91% 4.0 mph WNW6.4 kmh WNW -- 29.77 in1008.1 mb 0.00 in0.0 mm 0.00 in0.0 mm 0.00 in0.0 mm
01:18 AM 15.3°F-9.3°C 13.1°F-10.5°C 91% 2.0 mph W3.2 kmh W -- 29.77 in1008.1 mb 0.00 in0.0 mm 0.00 in0.0 mm 0.00 in0.0 mm
01:17 AM 15.3°F-9.3°C 13.1°F-10.5°C 91% 3.0 mph W4.8 kmh W -- 29.77 in1008.1 mb 0.00 in0.0 mm 0.00 in0.0 mm 0.00 in0.0 mm
01:16 AM 15.3°F-9.3°C 13.1°F-10.5°C 91% 3.0 mph WNW4.8 kmh WNW -- 29.77 in1008.1 mb 0.00 in0.0 mm 0.00 in0.0 mm 0.00 in0.0 mm
01:15 AM 15.3°F-9.3°C 13.1°F-10.5°C 91% 1.0 mph WNW1.6 kmh WNW -- 29.77 in1008.1 mb 0.00 in0.0 mm 0.00 in0.0 mm 0.00 in0.0 mm
01:14 AM 15.3°F-9.3°C 13.1°F-10.5°C 91% 4.0 mph W6.4 kmh W -- 29.77 in1008.1 mb 0.00 in0.0 mm 0.00 in0.0 mm 0.00 in0.0 mm
01:13 AM 15.3°F-9.3°C 13.1°F-10.5°C 91% 3.0 mph WNW4.8 kmh WNW -- 29.77 in1008.1 mb 0.00 in0.0 mm 0.00 in0.0 mm 0.00 in0.0 mm
01:12 AM 15.6°F-9.1°C 13.4°F-10.3°C 91% 4.0 mph NNW6.4 kmh NNW -- 29.77 in1008.1 mb 0.00 in0.0 mm 0.00 in0.0 mm 0.00 in0.0 mm
01:11 AM 15.6°F-9.1°C 13.4°F-10.3°C 91% 5.0 mph 8.0 kmh -- 29.77 in1008.1 mb 0.00 in0.0 mm 0.00 in0.0 mm 0.00 in0.0 mm
01:10 AM 15.6°F-9.1°C 13.4°F-10.3°C 91% 4.0 mph WNW6.4 kmh WNW -- 29.77 in1008.1 mb 0.00 in0.0 mm 0.00 in0.0 mm 0.00 in0.0 mm
01:09 AM 15.6°F-9.1°C 13.4°F-10.3°C 91% 1.0 mph WNW1.6 kmh WNW -- 29.77 in1008.1 mb 0.00 in0.0 mm 0.00 in0.0 mm 0.00 in0.0 mm
01:08 AM 15.6°F-9.1°C 13.4°F-10.3°C 91% 2.0 mph WNW3.2 kmh WNW -- 29.77 in1008.1 mb 0.00 in0.0 mm 0.00 in0.0 mm 0.00 in0.0 mm
01:07 AM 15.6°F-9.1°C 13.4°F-10.3°C 91% 4.0 mph WNW6.4 kmh WNW -- 29.77 in1008.1 mb 0.00 in0.0 mm 0.00 in0.0 mm 0.00 in0.0 mm
01:06 AM 15.8°F-9.0°C 13.6°F-10.2°C 91% 2.0 mph W3.2 kmh W -- 29.77 in1008.1 mb 0.00 in0.0 mm 0.00 in0.0 mm 0.00 in0.0 mm
01:05 AM 15.8°F-9.0°C 13.6°F-10.2°C 91% 3.0 mph W4.8 kmh W -- 29.77 in1008.1 mb 0.00 in0.0 mm 0.00 in0.0 mm 0.00 in0.0 mm
01:03 AM 15.8°F-9.0°C 13.6°F-10.2°C 91% 5.0 mph WNW8.0 kmh WNW -- 29.77 in1008.1 mb 0.00 in0.0 mm 0.00 in0.0 mm 0.00 in0.0 mm
01:02 AM 15.8°F-9.0°C 13.6°F-10.2°C 91% 5.0 mph W8.0 kmh W -- 29.77 in1008.1 mb 0.00 in0.0 mm 0.00 in0.0 mm 0.00 in0.0 mm
01:00 AM 15.8°F-9.0°C 13.6°F-10.2°C 91% 2.0 mph W3.2 kmh W -- 29.77 in1008.1 mb 0.00 in0.0 mm 0.00 in0.0 mm 0.00 in0.0 mm
12:59 AM 15.8°F-9.0°C 13.6°F-10.2°C 91% 3.0 mph WNW4.8 kmh WNW -- 29.77 in1008.1 mb 0.00 in0.0 mm 0.00 in0.0 mm 0.00 in0.0 mm
12:58 AM 15.8°F-9.0°C 13.6°F-10.2°C 91% 1.0 mph W1.6 kmh W -- 29.77 in1008.1 mb 0.00 in0.0 mm 0.00 in0.0 mm 0.00 in0.0 mm
12:57 AM 15.8°F-9.0°C 13.6°F-10.2°C 91% 2.0 mph W3.2 kmh W -- 29.77 in1008.1 mb 0.00 in0.0 mm 0.00 in0.0 mm 0.00 in0.0 mm
12:56 AM 15.8°F-9.0°C 13.6°F-10.2°C 91% 4.0 mph WNW6.4 kmh WNW -- 29.77 in1008.1 mb 0.00 in0.0 mm 0.00 in0.0 mm 0.00 in0.0 mm
12:55 AM 15.8°F-9.0°C 13.6°F-10.2°C 91% 5.0 mph NW8.0 kmh NW -- 29.77 in1008.1 mb 0.00 in0.0 mm 0.00 in0.0 mm 0.00 in0.0 mm
12:54 AM 15.8°F-9.0°C 13.6°F-10.2°C 91% 5.0 mph W8.0 kmh W -- 29.77 in1008.1 mb 0.00 in0.0 mm 0.00 in0.0 mm 0.00 in0.0 mm
12:53 AM 15.8°F-9.0°C 14.1°F-9.9°C 93% 8.0 mph W12.9 kmh W -- 29.77 in1008.1 mb 0.00 in0.0 mm 0.00 in0.0 mm 0.00 in0.0 mm
12:52 AM 15.8°F-9.0°C 14.1°F-9.9°C 93% 3.0 mph NW4.8 kmh NW -- 29.77 in1008.1 mb 0.00 in0.0 mm 0.00 in0.0 mm 0.00 in0.0 mm
12:51 AM 15.8°F-9.0°C 14.1°F-9.9°C 93% 3.0 mph W4.8 kmh W -- 29.77 in1008.1 mb 0.00 in0.0 mm 0.00 in0.0 mm 0.00 in0.0 mm
12:50 AM 15.8°F-9.0°C 14.1°F-9.9°C 93% 1.0 mph W1.6 kmh W -- 29.76 in1007.8 mb 0.00 in0.0 mm 0.00 in0.0 mm 0.00 in0.0 mm
12:49 AM 15.8°F-9.0°C 14.1°F-9.9°C 93% 4.0 mph NNW6.4 kmh NNW -- 29.77 in1008.1 mb 0.00 in0.0 mm 0.00 in0.0 mm 0.00 in0.0 mm
12:48 AM 15.8°F-9.0°C 14.1°F-9.9°C 93% 2.0 mph W3.2 kmh W -- 29.76 in1007.8 mb 0.00 in0.0 mm 0.00 in0.0 mm 0.00 in0.0 mm
12:47 AM 15.8°F-9.0°C 14.1°F-9.9°C 93% 1.0 mph SW1.6 kmh SW -- 29.77 in1008.1 mb 0.00 in0.0 mm 0.00 in0.0 mm 0.00 in0.0 mm
12:46 AM 15.8°F-9.0°C 14.1°F-9.9°C 93% 3.0 mph WNW4.8 kmh WNW -- 29.76 in1007.8 mb 0.00 in0.0 mm 0.00 in0.0 mm 0.00 in0.0 mm
12:45 AM 15.8°F-9.0°C 14.1°F-9.9°C 93% 2.0 mph W3.2 kmh W -- 29.77 in1008.1 mb 0.00 in0.0 mm 0.00 in0.0 mm 0.00 in0.0 mm
12:44 AM 15.8°F-9.0°C 14.1°F-9.9°C 93% 3.0 mph WNW4.8 kmh WNW -- 29.77 in1008.1 mb 0.00 in0.0 mm 0.00 in0.0 mm 0.00 in0.0 mm
12:43 AM 15.8°F-9.0°C 14.1°F-9.9°C 93% 1.0 mph W1.6 kmh W -- 29.77 in1008.1 mb 0.00 in0.0 mm 0.00 in0.0 mm 0.00 in0.0 mm
12:42 AM 15.8°F-9.0°C 14.1°F-9.9°C 93% 3.0 mph WNW4.8 kmh WNW -- 29.77 in1008.1 mb 0.00 in0.0 mm 0.00 in0.0 mm 0.00 in0.0 mm
12:41 AM 15.8°F-9.0°C 14.1°F-9.9°C 93% 3.0 mph W4.8 kmh W -- 29.77 in1008.1 mb 0.00 in0.0 mm 0.00 in0.0 mm 0.00 in0.0 mm
12:40 AM 15.8°F-9.0°C 14.1°F-9.9°C 93% 3.0 mph NNW4.8 kmh NNW -- 29.77 in1008.1 mb 0.00 in0.0 mm 0.00 in0.0 mm 0.00 in0.0 mm
12:39 AM 15.8°F-9.0°C 14.1°F-9.9°C 93% 3.0 mph W4.8 kmh W -- 29.77 in1008.1 mb 0.00 in0.0 mm 0.00 in0.0 mm 0.00 in0.0 mm
12:38 AM 15.8°F-9.0°C 14.1°F-9.9°C 93% 5.0 mph NNW8.0 kmh NNW -- 29.77 in1008.1 mb 0.00 in0.0 mm 0.00 in0.0 mm 0.00 in0.0 mm
12:37 AM 15.8°F-9.0°C 14.1°F-9.9°C 93% 2.0 mph WNW3.2 kmh WNW -- 29.77 in1008.1 mb 0.00 in0.0 mm 0.00 in0.0 mm 0.00 in0.0 mm
12:36 AM 15.8°F-9.0°C 14.1°F-9.9°C 93% 4.0 mph W6.4 kmh W -- 29.77 in1008.1 mb 0.00 in0.0 mm 0.00 in0.0 mm 0.00 in0.0 mm
12:35 AM 15.8°F-9.0°C 14.1°F-9.9°C 93% 9.0 mph W14.5 kmh W -- 29.77 in1008.1 mb 0.00 in0.0 mm 0.00 in0.0 mm 0.00 in0.0 mm
12:34 AM 15.8°F-9.0°C 14.1°F-9.9°C 93% 1.0 mph WSW1.6 kmh WSW -- 29.77 in1008.1 mb 0.00 in0.0 mm 0.00 in0.0 mm 0.00 in0.0 mm
12:33 AM 15.8°F-9.0°C 14.1°F-9.9°C 93% 2.0 mph WNW3.2 kmh WNW -- 29.76 in1007.8 mb 0.00 in0.0 mm 0.00 in0.0 mm 0.00 in0.0 mm
12:32 AM 15.8°F-9.0°C 14.1°F-9.9°C 93% 4.0 mph W6.4 kmh W -- 29.76 in1007.8 mb 0.00 in0.0 mm 0.00 in0.0 mm 0.00 in0.0 mm
12:30 AM 15.6°F-9.1°C 13.9°F-10.1°C 93% 3.0 mph WNW4.8 kmh WNW -- 29.77 in1008.1 mb 0.00 in0.0 mm 0.00 in0.0 mm 0.00 in0.0 mm
12:29 AM 15.6°F-9.1°C 13.9°F-10.1°C 93% 4.0 mph W6.4 kmh W -- 29.77 in1008.1 mb 0.00 in0.0 mm 0.00 in0.0 mm 0.00 in0.0 mm
12:28 AM 15.3°F-9.3°C 13.6°F-10.2°C 93% 4.0 mph W6.4 kmh W -- 29.77 in1008.1 mb 0.00 in0.0 mm 0.00 in0.0 mm 0.00 in0.0 mm
12:27 AM 15.3°F-9.3°C 14.1°F-9.9°C 95% 6.0 mph WNW9.7 kmh WNW -- 29.76 in1007.8 mb 0.00 in0.0 mm 0.00 in0.0 mm 0.00 in0.0 mm
12:26 AM 15.2°F-9.3°C 14.1°F-9.9°C 95% 6.0 mph WNW9.7 kmh WNW -- 29.76 in1007.8 mb 0.00 in0.0 mm 0.00 in0.0 mm 0.00 in0.0 mm
12:25 AM 15.0°F-9.4°C 13.9°F-10.1°C 95% 2.0 mph W3.2 kmh W -- 29.77 in1008.1 mb 0.00 in0.0 mm 0.00 in0.0 mm 0.00 in0.0 mm
12:24 AM 15.0°F-9.4°C 13.9°F-10.1°C 95% 3.0 mph W4.8 kmh W -- 29.77 in1008.1 mb 0.00 in0.0 mm 0.00 in0.0 mm 0.00 in0.0 mm
12:23 AM 15.0°F-9.4°C 13.9°F-10.1°C 95% 2.0 mph W3.2 kmh W -- 29.77 in1008.1 mb 0.00 in0.0 mm 0.00 in0.0 mm 0.00 in0.0 mm
12:22 AM 14.7°F-9.6°C 13.8°F-10.1°C 96% 4.0 mph W6.4 kmh W -- 29.77 in1008.1 mb 0.00 in0.0 mm 0.00 in0.0 mm 0.00 in0.0 mm
12:21 AM 14.7°F-9.6°C 13.8°F-10.1°C 96% 5.0 mph W8.0 kmh W -- 29.77 in1008.1 mb 0.00 in0.0 mm 0.00 in0.0 mm 0.00 in0.0 mm
12:20 AM 14.7°F-9.6°C 13.8°F-10.1°C 96% 1.0 mph WNW1.6 kmh WNW -- 29.76 in1007.8 mb 0.00 in0.0 mm 0.00 in0.0 mm 0.00 in0.0 mm
12:19 AM 14.5°F-9.7°C 13.6°F-10.2°C 96% 3.0 mph WNW4.8 kmh WNW -- 29.77 in1008.1 mb 0.00 in0.0 mm 0.00 in0.0 mm 0.00 in0.0 mm
12:17 AM 14.5°F-9.7°C 13.6°F-10.2°C 96% 1.0 mph WNW1.6 kmh WNW -- 29.76 in1007.8 mb 0.00 in0.0 mm 0.00 in0.0 mm 0.00 in0.0 mm
12:16 AM 14.5°F-9.7°C 13.6°F-10.2°C 96% 1.0 mph W1.6 kmh W -- 29.76 in1007.8 mb 0.00 in0.0 mm 0.00 in0.0 mm 0.00 in0.0 mm
12:15 AM 14.5°F-9.7°C 13.6°F-10.2°C 96% 2.0 mph NNW3.2 kmh NNW -- 29.76 in1007.8 mb 0.00 in0.0 mm 0.00 in0.0 mm 0.00 in0.0 mm
12:14 AM 14.5°F-9.7°C 13.6°F-10.2°C 96% 1.0 mph W1.6 kmh W -- 29.77 in1008.1 mb 0.00 in0.0 mm 0.00 in0.0 mm 0.00 in0.0 mm
12:13 AM 14.3°F-9.8°C 13.4°F-10.3°C 96% 2.0 mph W3.2 kmh W -- 29.77 in1008.1 mb 0.00 in0.0 mm 0.00 in0.0 mm 0.00 in0.0 mm
12:12 AM 14.3°F-9.8°C 13.4°F-10.3°C 96% 5.0 mph W8.0 kmh W -- 29.77 in1008.1 mb 0.00 in0.0 mm 0.00 in0.0 mm 0.00 in0.0 mm
12:11 AM 14.1°F-9.9°C 13.2°F-10.4°C 96% 2.0 mph W3.2 kmh W -- 29.76 in1007.8 mb 0.00 in0.0 mm 0.00 in0.0 mm 0.00 in0.0 mm
12:10 AM 13.9°F-10.1°C 12.9°F-10.6°C 96% 3.0 mph W4.8 kmh W -- 29.77 in1008.1 mb 0.00 in0.0 mm 0.00 in0.0 mm 0.00 in0.0 mm
12:09 AM 13.9°F-10.1°C 12.9°F-10.6°C 96% 2.0 mph W3.2 kmh W -- 29.77 in1008.1 mb 0.00 in0.0 mm 0.00 in0.0 mm 0.00 in0.0 mm
12:08 AM 13.7°F-10.2°C 12.7°F-10.7°C 96% 2.0 mph W3.2 kmh W -- 29.76 in1007.8 mb 0.00 in0.0 mm 0.00 in0.0 mm 0.00 in0.0 mm
12:07 AM 13.7°F-10.2°C 12.7°F-10.7°C 96% 3.0 mph W4.8 kmh W -- 29.77 in1008.1 mb 0.00 in0.0 mm 0.00 in0.0 mm 0.00 in0.0 mm
12:06 AM 13.6°F-10.2°C 12.7°F-10.7°C 96% 4.0 mph NNW6.4 kmh NNW -- 29.77 in1008.1 mb 0.00 in0.0 mm 0.00 in0.0 mm 0.00 in0.0 mm
12:05 AM 13.5°F-10.3°C 12.5°F-10.8°C 96% 3.0 mph WNW4.8 kmh WNW -- 29.77 in1008.1 mb 0.00 in0.0 mm 0.00 in0.0 mm 0.00 in0.0 mm
12:04 AM 13.3°F-10.4°C 12.3°F-10.9°C 96% 3.0 mph NW4.8 kmh NW -- 29.77 in1008.1 mb 0.00 in0.0 mm 0.00 in0.0 mm 0.00 in0.0 mm
12:03 AM 13.1°F-10.5°C 12.2°F-11.0°C 96% 1.0 mph WNW1.6 kmh WNW -- 29.76 in1007.8 mb 0.00 in0.0 mm 0.00 in0.0 mm 0.00 in0.0 mm
12:02 AM 13.1°F-10.5°C 12.2°F-11.0°C 96% 2.0 mph W3.2 kmh W -- 29.76 in1007.8 mb 0.00 in0.0 mm 0.00 in0.0 mm 0.00 in0.0 mm
12:01 AM 13.1°F-10.5°C 12.2°F-11.0°C 96% 2.0 mph WNW3.2 kmh WNW -- 29.77 in1008.1 mb 0.00 in0.0 mm 0.00 in0.0 mm 0.00 in0.0 mm
12:00 AM 12.8°F-10.7°C 11.8°F-11.2°C 96% 1.0 mph W1.6 kmh W -- 29.77 in1008.1 mb 0.00 in0.0 mm 0.00 in0.0 mm 0.00 in0.0 mm